M I D A S
Marine Information and Data Acquisition System
Tripno 1941 of the Zeeleeuw from 2010-08-19 08:00:00 to 2010-08-19 17:00:00
Back to CruiseResearch ActivitiesStationsMapUnderway DataData graphs

EquipmentUnitsComment
TimeDGPSUTC
LatitudeDGPSDM.mWGS84
LongitudeDGPSDM.mWGS84
HeadingGyrodeg 
SOGDGPSknotsSpeed over ground
COGDGPSdegCourse over ground
DepthEcho soundermeters200 kHz
Missing or incorrect values are displayed as -999
Navigation data collected by the RV Zeeleeuw from 2010-08-19 08:00:00 to 2010-08-19 17:00:00
Time Latitude Longitude Heading SOG COG Depth
2010-08-19 08:02:10 51°24.013 2°50.901 89.9 13.9 91 -999
2010-08-19 08:04:10 51°24.025 2°51.636 90.7 13.9 83 -999
2010-08-19 08:06:10 51°24.041 2°52.374 92.4 14 89 -999
2010-08-19 08:08:10 51°24.056 2°53.12 93.5 14.19 84 -999
2010-08-19 08:10:10 51°24.073 2°53.863 91.4 14.19 84 -999
2010-08-19 08:12:10 51°24.09 2°54.611 90.2 13.9 89 -999
2010-08-19 08:14:10 51°24.108 2°55.358 92.5 14 88 -999
2010-08-19 08:16:10 51°24.126 2°56.095 92.7 13.9 84 -999
2010-08-19 08:18:10 51°24.13 2°56.831 94.5 13.69 89 -999
2010-08-19 08:20:10 51°24.128 2°57.563 95 13.4 91 -999
2010-08-19 08:22:10 51°24.005 2°58.235 120.2 13.59 111 -999
2010-08-19 08:24:10 51°23.93 2°58.944 100.9 13.09 100 -999
2010-08-19 08:26:10 51°23.892 2°59.673 97.2 13.69 94 -999
2010-08-19 08:28:10 51°23.883 3°0.423 93 14.59 89 -999
2010-08-19 08:30:10 51°23.889 3°1.17 93 13.8 91 -999
2010-08-19 08:32:10 51°23.897 3°1.911 91.7 13.69 89 -999
2010-08-19 08:34:10 51°23.902 3°2.654 92.2 14.09 89 -999
2010-08-19 08:36:10 51°23.781 3°3.323 121.2 13.59 116 -999
2010-08-19 08:38:10 51°23.798 3°4.011 71.2 13.8 69 -999
2010-08-19 08:40:10 51°24.158 3°4.443 45.1 14 47 -999
2010-08-19 08:42:10 51°24.117 3°5.157 102.4 13.5 100 -999
2010-08-19 08:44:10 51°24.046 3°5.873 104.2 13.5 102 -999
2010-08-19 08:46:10 51°23.995 3°6.588 97.2 13.4 91 -999
2010-08-19 08:48:10 51°23.998 3°7.317 92.7 14 89 -999
2010-08-19 08:50:10 51°24.012 3°8.042 88.5 13.69 85 -999
2010-08-19 08:52:10 51°24.043 3°8.78 89.5 14 87 -999
2010-08-19 08:54:10 51°24.088 3°9.521 86.2 14.09 87 -999
2010-08-19 08:56:10 51°24.174 3°10.258 80.5 14.19 74 -999
2010-08-19 08:58:10 51°24.294 3°10.994 74.7 14.5 73 -999
2010-08-19 09:00:10 51°24.436 3°11.71 75.4 14.4 73 -999
2010-08-19 09:02:10 51°24.584 3°12.346 70.2 10.9 69 -999
2010-08-19 09:04:10 51°24.716 3°12.658 28.6 5.4 38 -999
2010-08-19 09:06:10 51°24.815 3°12.723 340 2.39 19 -999
2010-08-19 09:08:10 51°24.865 3°12.724 283.1 1.5 321 -999
2010-08-19 09:10:10 51°24.866 3°12.606 244.5 2.39 247 -999
2010-08-19 09:12:10 51°24.837 3°12.58 217.4 0.59 161 -999
2010-08-19 09:14:10 51°24.829 3°12.63 191.6 1.3 87 -999
2010-08-19 09:16:10 51°24.841 3°12.708 145.5 1.5 76 -999
2010-08-19 09:18:10 51°24.859 3°12.79 130 1.6 68 -999
2010-08-19 09:20:10 51°24.807 3°12.774 247.8 5.5 263 -999
2010-08-19 09:22:10 51°25.058 3°12.388 307.1 12.3 310 -999
2010-08-19 09:24:10 51°25.332 3°11.877 308.3 12.8 311 -999
2010-08-19 09:26:10 51°25.606 3°11.367 307.8 12.09 311 -999
2010-08-19 09:28:10 51°25.812 3°11.112 325.6 7.4 332 -999
2010-08-19 09:30:10 51°26.06 3°10.885 325.5 9.69 330 -999
2010-08-19 09:32:10 51°26.397 3°10.502 317.3 13.09 319 -999
2010-08-19 09:34:10 51°26.726 3°10.027 316.1 13.19 320 -999
2010-08-19 09:36:10 51°27.061 3°9.564 316.3 13.3 319 -999
2010-08-19 09:38:10 51°27.398 3°9.098 316.1 13.4 320 -999
2010-08-19 09:40:10 51°27.75 3°8.657 319.6 13.3 322 -999
2010-08-19 09:42:10 51°28.101 3°8.219 318.8 13.3 323 -999
2010-08-19 09:44:10 51°28.455 3°7.78 319.3 13.3 322 -999
2010-08-19 09:46:10 51°28.805 3°7.345 319.3 13.19 323 -999
2010-08-19 09:48:10 51°29.149 3°6.919 319.5 13.19 323 -999
2010-08-19 09:50:10 51°29.421 3°6.633 328.8 6.29 338 -999
2010-08-19 09:52:10 51°29.536 3°6.582 318.3 2.2 359 -999
2010-08-19 09:54:10 51°29.529 3°6.667 349.8 1.5 110 -999
2010-08-19 09:56:10 51°29.529 3°6.725 10.1 1 94 -999
2010-08-19 09:58:10 51°29.518 3°6.747 37.8 0.8 75 -999
2010-08-19 10:00:10 51°29.53 3°6.775 47.8 0.29 171 -999
2010-08-19 10:02:10 51°29.531 3°6.743 76.5 1.1 41 -999
2010-08-19 10:04:10 51°29.521 3°6.901 117.5 4.4 105 -999
2010-08-19 10:06:10 51°29.488 3°6.815 312.3 5.9 327 -999
2010-08-19 10:08:10 51°29.521 3°6.864 11.1 3 29 -999
2010-08-19 10:10:10 51°29.499 3°6.872 34.2 0.59 188 -999
2010-08-19 10:12:10 51°29.5 3°6.899 39.7 0.8 57 -999
2010-08-19 10:14:10 51°29.525 3°6.947 27.8 1.5 47 -999
2010-08-19 10:16:10 51°29.561 3°6.999 359.3 1.39 40 -999
2010-08-19 10:18:10 51°29.595 3°7.047 339.6 1.3 41 -999
2010-08-19 10:20:10 51°29.625 3°7.101 336.6 1.3 51 -999
2010-08-19 10:22:10 51°29.682 3°7.067 277.8 2.7 299 -999
2010-08-19 10:24:10 51°29.614 3°6.944 213.8 3.89 212 -999
2010-08-19 10:26:10 51°29.553 3°6.911 217.5 0.4 139 -999
2010-08-19 10:28:10 51°29.566 3°6.95 211.3 1.39 61 -999
2010-08-19 10:30:10 51°29.6 3°7.003 165.4 1.3 43 -999
2010-08-19 10:32:10 51°29.629 3°7.056 146.9 1.3 52 -999
2010-08-19 10:34:10 51°29.608 3°7.098 199.6 1.39 181 -999
2010-08-19 10:36:10 51°29.557 3°7.044 225.8 2.2 225 -999
2010-08-19 10:38:10 51°29.533 3°7.007 222.8 0.2 195 -999
2010-08-19 10:40:10 51°29.544 3°7.041 201.5 1.1 52 -999
2010-08-19 10:42:10 51°29.574 3°7.093 158.5 1.3 45 -999
2010-08-19 10:44:10 51°29.574 3°7.151 177.8 1.39 143 -999
2010-08-19 10:46:10 51°29.546 3°7.097 251 2 270 -999
2010-08-19 10:48:10 51°29.537 3°6.962 241.8 2.5 250 -999
2010-08-19 10:50:10 51°29.523 3°6.939 206.8 0.5 108 -999
2010-08-19 10:52:10 51°29.549 3°6.983 189 2.5 26 -999
2010-08-19 10:54:10 51°29.559 3°6.944 229.5 4.9 248 -999
2010-08-19 10:56:10 51°29.627 3°6.863 326.8 2 359 -999
2010-08-19 10:58:10 51°29.683 3°6.853 296.3 2 331 -999
2010-08-19 11:00:10 51°29.641 3°6.808 165.5 2.5 151 -999
2010-08-19 11:02:10 51°29.607 3°6.876 163.5 1.1 113 -999
2010-08-19 11:04:10 51°29.608 3°6.924 167.3 0.8 76 -999
2010-08-19 11:06:10 51°29.622 3°6.97 170.8 1 60 -999
2010-08-19 11:08:10 51°29.644 3°7.018 164 1.1 51 -999
2010-08-19 11:10:10 51°29.671 3°7.064 151.6 1.1 47 -999
2010-08-19 11:12:10 51°29.699 3°7.11 148.9 1.19 45 -999
2010-08-19 11:14:10 51°29.641 3°7.111 216.4 3.7 218 -999
2010-08-19 11:16:10 51°29.556 3°7.026 204.6 2.1 197 -999
2010-08-19 11:18:10 51°29.533 3°7.029 200 0.4 116 -999
2010-08-19 11:20:10 51°29.539 3°7.064 188.9 0.8 63 -999
2010-08-19 11:22:10 51°29.548 3°7.12 152.8 2 123 -999
2010-08-19 11:24:10 51°29.648 3°7.203 326.3 5.59 328 -999
2010-08-19 11:26:10 51°29.65 3°6.999 244.8 4 252 -999
2010-08-19 11:28:10 51°29.614 3°6.907 221.1 1.1 224 -999
2010-08-19 11:30:10 51°29.607 3°6.91 209 0.5 62 -999
2010-08-19 11:32:10 51°29.621 3°6.95 177 1.1 52 -999
2010-08-19 11:34:10 51°29.622 3°6.997 172.5 1 133 -999
2010-08-19 11:36:10 51°29.624 3°7.032 186 0.9 64 -999
2010-08-19 11:38:10 51°29.641 3°7.069 170.3 1 47 -999
2010-08-19 11:40:10 51°29.646 3°7.109 171.8 1.3 145 -999
2010-08-19 11:42:10 51°29.576 3°7.036 223 3.5 222 -999
2010-08-19 11:44:10 51°29.528 3°6.97 216.5 0.69 197 -999
2010-08-19 11:46:10 51°29.53 3°6.987 201.5 0.8 59 -999
2010-08-19 11:48:10 51°29.552 3°7.024 159.1 0.9 44 -999
2010-08-19 11:50:10 51°29.548 3°7.062 175.5 2 165 -999
2010-08-19 11:52:10 51°29.519 3°6.923 263.5 2.5 273 -999
2010-08-19 11:54:10 51°29.528 3°6.951 305.6 2.29 99 -999
2010-08-19 11:56:10 51°29.521 3°7.007 355.8 0.9 31 -999
2010-08-19 11:58:10 51°29.547 3°7.034 352.1 1 33 -999
2010-08-19 13:00:10 51°25.206 3°1.047 210.1 12.59 213 -999
2010-08-19 13:02:10 51°24.85 3°0.68 210.5 12.69 210 -999
2010-08-19 13:04:10 51°24.491 3°0.324 211.3 12.5 211 -999
2010-08-19 13:06:10 51°24.132 2°59.967 211.9 12.8 214 -999
2010-08-19 13:08:10 51°23.773 2°59.609 210.4 12.8 212 -999
2010-08-19 13:10:10 51°23.411 2°59.244 211.3 13 212 -999
2010-08-19 13:12:10 51°23.053 2°58.857 212.6 12.9 214 -999
2010-08-19 13:14:10 51°22.695 2°58.478 212.5 12.8 215 -999
2010-08-19 13:16:10 51°22.327 2°58.136 206.4 12.59 206 -999
2010-08-19 13:18:10 51°21.947 2°57.817 206.1 13.09 211 -999
2010-08-19 13:20:10 51°21.575 2°57.481 208.5 12.8 212 -999
2010-08-19 13:22:10 51°21.211 2°57.123 211.3 12.69 213 -999
2010-08-19 13:24:10 51°20.848 2°56.765 210.4 12.8 210 -999
2010-08-19 13:26:10 51°20.484 2°56.4 210.6 13 213 -999
2010-08-19 13:28:10 51°20.118 2°56.036 210.5 12.9 212 -999
2010-08-19 13:30:10 51°19.751 2°55.668 211 13 213 -999
2010-08-19 13:32:10 51°19.383 2°55.296 212.5 13.09 216 -999
2010-08-19 13:34:10 51°19.019 2°54.909 212.4 13.09 214 -999
2010-08-19 13:36:10 51°18.658 2°54.525 211.9 12.9 215 -999
2010-08-19 13:38:10 51°18.3 2°54.139 212 13.09 214 -999
2010-08-19 13:40:10 51°17.938 2°53.757 212 12.9 211 -999
2010-08-19 13:42:10 51°17.562 2°53.403 207 12.8 207 -999
2010-08-19 13:44:10 51°17.161 2°53.191 188 12.8 187 -999
2010-08-19 13:46:10 51°16.729 2°53.175 176.4 13.59 181 -999
2010-08-19 13:48:10 51°16.294 2°53.204 171 13.19 179 -999
2010-08-19 13:50:10 51°15.894 2°53.429 148 12.59 148 -999
2010-08-19 13:52:10 51°15.549 2°53.825 137.6 12.9 143 -999
2010-08-19 13:54:10 51°15.234 2°54.197 142.4 12.8 145 -999